This is the latest recevied weather packets stored in our database for station/object KM4KMO-14. If no packets are shown the sender has not sent any weather packets the latest 10 day(s).
| Time | Temp. | Humidity | Pressure | Rain* | Wind** | Luminosity | Snow |
|---|---|---|---|---|---|---|---|
| 1777733848 | 15° C | 50% | 1012.6 hPa | 0 mm | - | - | - |
| 1777732947 | 14.44° C | 54% | 1012.5 hPa | 0 mm | - | - | - |
| 1777731149 | 13.33° C | 57% | 1012.4 hPa | 0 mm | - | - | - |
| 1777727549 | 11.67° C | 64% | 1012.3 hPa | 0 mm | - | - | - |
| 1777726648 | 11.67° C | 64% | 1012.2 hPa | 0 mm | - | - | - |
| 1777725749 | 11.67° C | 66% | 1012.2 hPa | 0 mm | - | - | - |
| 1777724849 | 11.11° C | 67% | 1012 hPa | 0 mm | - | - | - |
| 1777723949 | 11.11° C | 68% | 1011.9 hPa | 0 mm | - | - | - |
| 1777722149 | 11.11° C | 68% | 1011.8 hPa | 0 mm | - | - | - |
| 1777721249 | 11.11° C | 68% | 1011.7 hPa | 0 mm | - | - | - |
| 1777716749 | 11.67° C | 66% | 1011.4 hPa | 0 mm | - | - | - |
| 1777715849 | 11.67° C | 65% | 1011.4 hPa | 0 mm | - | - | - |
| 1777714949 | 11.67° C | 65% | 1011.4 hPa | 0 mm | - | - | - |
| 1777713149 | 11.67° C | 63% | 1011 hPa | 0 mm | - | - | - |
| 1777711349 | 11.67° C | 62% | 1011 hPa | 0 mm | - | - | - |
| 1777709549 | 12.22° C | 62% | 1011.2 hPa | 0 mm | - | - | - |
| 1777707750 | 12.78° C | 58% | 1011.8 hPa | 0 mm | - | - | - |
| 1777705950 | 12.78° C | 60% | 1011.6 hPa | 0 mm | - | - | - |
| 1777704149 | 12.78° C | 57% | 1012.1 hPa | 0 mm | - | - | - |
| 1777702350 | 13.33° C | 56% | 1012 hPa | 0 mm | - | - | - |
| 1777701450 | 13.33° C | 54% | 1012.2 hPa | 0 mm | - | - | - |
| 1777698750 | 13.89° C | 54% | 1011.7 hPa | 0 mm | - | - | - |
| 1777697850 | 13.89° C | 57% | 1011.7 hPa | 0 mm | - | - | - |
| 1777696950 | 14.44° C | 59% | 1011.8 hPa | 0 mm | - | - | - |
| 1777695150 | 14.44° C | 55% | 1011.8 hPa | 0 mm | - | - | - |
* Rain latest hour (hover to see other rain measurements)
** Current wind speed in m/s (hover to see current wind gust speed)